Time;durP1;ratioP1;P1;durP2;ratioP2;P2;SDS_P1;SDS_P2;PMS_P1;PMS_P2;Temp;Humidity;BMP_temperature;BMP_pressure;BME280_temperature;BME280_humidity;BME280_pressure;Samples;Min_cycle;Max_cycle;Signal;HPM_P1;HPM_P2
2023/03/13 00:00:10;;;;;;;5.40;3.50;;;;;;;1.54;74.79;100928.54;104322;1279;62800;-93
2023/03/13 00:02:45;;;;;;;4.10;3.40;;;;;;;1.51;74.96;100929.27;105172;1279;74332;-96
2023/03/13 00:05:15;;;;;;;3.00;2.50;;;;;;;1.54;74.80;100925.44;104271;1279;60684;-93
2023/03/13 00:07:48;;;;;;;6.50;3.20;;;;;;;1.53;74.87;100929.59;104445;1279;60436;-92
2023/03/13 00:10:19;;;;;;;6.00;3.90;;;;;;;1.54;74.89;100937.66;106729;1279;74667;-94
2023/03/13 00:12:47;;;;;;;6.50;3.30;;;;;;;1.54;74.88;100939.20;105490;1279;63891;-94
2023/03/13 00:15:35;;;;;;;3.90;2.70;;;;;;;1.55;74.46;100934.90;107395;1276;74332;-93
2023/03/13 00:19:13;;;;;;;2.70;2.20;;;;;;;1.49;74.13;100934.31;104328;1286;60137;-94
2023/03/13 00:21:48;;;;;;;2.80;2.20;;;;;;;1.47;74.27;100941.41;103921;1283;59845;-94
2023/03/13 00:24:26;;;;;;;4.80;2.50;;;;;;;1.42;74.26;100942.02;104044;1283;74463;-94
2023/03/13 00:27:01;;;;;;;3.30;3.00;;;;;;;1.40;74.35;100948.42;104305;1284;64046;-94
2023/03/13 00:29:33;;;;;;;3.40;2.60;;;;;;;1.37;74.31;100955.17;104896;1282;73764;-93
2023/03/13 00:32:06;;;;;;;3.70;2.60;;;;;;;1.31;74.25;100952.52;104080;1282;61156;-93
2023/03/13 00:34:36;;;;;;;3.80;2.70;;;;;;;1.27;74.28;100952.06;103788;1283;59752;-93
2023/03/13 00:37:06;;;;;;;3.30;2.50;;;;;;;1.24;74.36;100951.77;104033;1283;74156;-90
2023/03/13 00:39:38;;;;;;;2.70;1.80;;;;;;;1.23;74.58;100958.50;104050;1282;65082;-93
2023/03/13 00:42:06;;;;;;;3.40;2.00;;;;;;;1.26;75.11;100960.70;104143;1283;72743;-93
2023/03/13 00:44:36;;;;;;;3.00;2.40;;;;;;;1.31;75.16;100964.25;104262;1282;59863;-91
2023/03/13 00:47:05;;;;;;;2.60;2.00;;;;;;;1.33;74.99;100966.42;104214;1282;60084;-93
2023/03/13 00:49:35;;;;;;;3.10;2.50;;;;;;;1.37;75.12;100974.48;104292;1280;73044;-96
2023/03/13 00:52:03;;;;;;;2.50;2.00;;;;;;;1.40;75.06;100976.14;105278;1280;63579;-92
2023/03/13 00:54:32;;;;;;;5.20;2.80;;;;;;;1.44;74.85;100981.92;104509;1280;73489;-93
2023/03/13 00:57:01;;;;;;;2.50;2.30;;;;;;;1.46;74.63;100983.28;104737;1280;60384;-92
2023/03/13 00:59:30;;;;;;;4.50;2.90;;;;;;;1.46;74.60;100985.70;104556;1278;60353;-95
2023/03/13 01:02:03;;;;;;;4.00;2.40;;;;;;;1.45;74.54;100990.88;105128;1282;71796;-94
2023/03/13 01:04:33;;;;;;;2.40;2.10;;;;;;;1.37;74.50;100992.04;105789;1276;65180;-94
2023/03/13 01:07:03;;;;;;;3.50;2.30;;;;;;;1.26;74.60;100989.45;105952;1276;76242;-95
2023/03/13 01:09:32;;;;;;;3.80;2.20;;;;;;;1.24;74.89;100991.04;107666;1277;61411;-94
2023/03/13 01:12:03;;;;;;;5.20;3.00;;;;;;;1.24;75.06;100995.00;107739;1276;59377;-95
2023/03/13 01:14:33;;;;;;;4.90;3.10;;;;;;;1.27;75.29;100995.83;106801;1278;73030;-94
2023/03/13 01:17:09;;;;;;;4.80;3.20;;;;;;;1.30;75.56;100998.36;105234;1277;62791;-94
2023/03/13 01:19:41;;;;;;;2.80;2.20;;;;;;;1.31;75.72;101001.44;105271;1277;72960;-95
2023/03/13 01:22:14;;;;;;;4.00;2.90;;;;;;;1.35;75.60;101006.90;105469;1276;59665;-94
2023/03/13 01:24:48;;;;;;;6.00;4.10;;;;;;;1.37;75.50;101008.05;106827;1277;61765;-92
2023/03/13 01:27:18;;;;;;;13.30;7.30;;;;;;;1.40;75.38;101013.36;105209;1277;73055;-93
2023/03/13 01:29:48;;;;;;;20.90;11.60;;;;;;;1.42;75.10;101016.08;107440;1276;63697;-92
2023/03/13 01:32:17;;;;;;;25.00;13.20;;;;;;;1.40;74.84;101021.10;107838;1276;72719;-92
2023/03/13 01:34:48;;;;;;;27.10;14.50;;;;;;;1.37;74.72;101019.10;107280;1276;59714;-95
2023/03/13 01:37:18;;;;;;;29.10;15.80;;;;;;;1.31;74.75;101021.41;105252;1277;61128;-94
2023/03/13 01:39:50;;;;;;;26.50;14.60;;;;;;;1.28;74.65;101025.44;105049;1277;73271;-95
2023/03/13 01:42:20;;;;;;;27.00;14.30;;;;;;;1.22;74.55;101027.74;104400;1278;63782;-94
2023/03/13 01:44:52;;;;;;;23.60;13.00;;;;;;;1.16;74.75;101031.80;105313;1276;72467;-95
2023/03/13 01:47:22;;;;;;;20.20;12.80;;;;;;;1.13;74.79;101042.36;107300;1276;61262;-95
2023/03/13 01:50:05;;;;;;;20.80;10.80;;;;;;;1.11;74.99;101040.66;107771;1276;60240;-94
2023/03/13 01:52:55;;;;;;;17.00;11.30;;;;;;;1.11;75.18;101045.65;106895;1276;73293;-93
2023/03/13 01:55:32;;;;;;;15.50;9.50;;;;;;;1.09;75.45;101044.13;106389;1281;64123;-94
2023/03/13 01:58:02;;;;;;;13.30;8.60;;;;;;;1.13;75.43;101051.98;105282;1281;72437;-96
2023/03/13 02:00:32;;;;;;;12.10;7.90;;;;;;;1.12;75.61;101054.23;104923;1282;59730;-96
2023/03/13 02:03:07;;;;;;;9.20;6.10;;;;;;;1.11;75.26;101057.88;104886;1280;61249;-95
2023/03/13 02:05:39;;;;;;;8.10;5.90;;;;;;;1.03;75.34;101056.78;104770;1283;73201;-96
2023/03/13 02:08:11;;;;;;;4.90;4.30;;;;;;;1.02;75.32;101065.05;105546;1281;64717;-95
2023/03/13 02:10:49;;;;;;;4.30;3.10;;;;;;;1.01;75.34;101070.23;106298;1282;73063;-92
2023/03/13 02:13:21;;;;;;;3.90;3.00;;;;;;;0.98;75.46;101074.23;105980;1281;60542;-95
2023/03/13 02:15:50;;;;;;;4.10;2.90;;;;;;;0.94;75.14;101079.44;104966;1282;61318;-95
2023/03/13 02:23:21;;;;;;;3.40;2.50;;;;;;;0.83;75.78;101092.83;106182;1270;61596;-95
2023/03/13 02:25:52;;;;;;;2.80;2.50;;;;;;;0.80;75.78;101101.65;105448;1266;60584;-96
2023/03/13 02:28:32;;;;;;;3.30;2.50;;;;;;;0.78;76.08;101104.08;105853;1268;74397;-94
2023/03/13 02:31:01;;;;;;;3.00;2.10;;;;;;;0.79;76.21;101112.68;105974;1267;65144;-92
2023/03/13 02:33:33;;;;;;;3.10;2.00;;;;;;;0.82;76.59;101115.41;105506;1260;653575;-94
2023/03/13 02:36:09;;;;;;;4.50;2.80;;;;;;;0.85;76.44;101114.34;105985;1267;60402;-96
2023/03/13 02:38:51;;;;;;;3.60;2.70;;;;;;;0.85;76.45;101118.98;106013;1260;61392;-94
2023/03/13 02:41:18;;;;;;;4.60;3.20;;;;;;;0.88;76.35;101120.48;105716;1266;74630;-94
2023/03/13 02:43:45;;;;;;;6.30;4.40;;;;;;;0.91;76.30;101123.38;105951;1262;65356;-92
2023/03/13 02:46:18;;;;;;;4.50;3.50;;;;;;;0.94;76.17;101128.00;105835;1260;72497;-94
2023/03/13 02:48:53;;;;;;;9.10;5.00;;;;;;;0.94;75.98;101130.23;106046;1260;60900;-95
2023/03/13 02:51:25;;;;;;;9.80;6.60;;;;;;;0.94;75.93;101134.70;109076;1259;60848;-94
2023/03/13 02:57:02;;;;;;;18.60;10.80;;;;;;;0.90;75.72;101144.21;109070;1260;63499;-96
2023/03/13 02:59:30;;;;;;;22.90;11.70;;;;;;;0.89;75.73;101153.19;107556;1253;73066;-94
2023/03/13 03:01:59;;;;;;;29.90;18.00;;;;;;;0.89;75.78;101158.02;106776;1254;61088;-95
2023/03/13 03:04:28;;;;;;;38.90;16.80;;;;;;;0.90;75.85;101164.52;106209;1261;60728;-95
2023/03/13 03:06:57;;;;;;;27.80;15.40;;;;;;;0.94;76.07;101166.72;107584;1257;73438;-93
2023/03/13 03:09:25;;;;;;;30.00;16.50;;;;;;;0.94;76.11;101167.77;108154;1254;63629;-94
2023/03/13 03:11:57;;;;;;;32.30;17.90;;;;;;;1.01;76.17;101176.11;108244;1253;73052;-95
2023/03/13 03:14:29;;;;;;;36.80;20.90;;;;;;;1.06;76.02;101177.26;109385;1254;58495;-94
2023/03/13 03:17:03;;;;;;;41.50;21.00;;;;;;;1.09;75.65;101182.55;109701;1253;60336;-95
2023/03/13 03:20:31;;;;;;;39.60;22.00;;;;;;;1.10;75.24;101186.34;109710;1254;73219;-96
2023/03/13 03:22:59;;;;;;;36.60;20.30;;;;;;;1.10;75.01;101190.83;109382;1252;63682;-96
2023/03/13 03:25:35;;;;;;;43.30;22.30;;;;;;;1.05;74.87;101192.75;109880;1253;71258;-95
2023/03/13 03:28:06;;;;;;;32.20;18.90;;;;;;;1.01;74.83;101188.85;109335;1257;59597;-93
2023/03/13 03:30:39;;;;;;;37.20;20.40;;;;;;;0.98;74.78;101195.60;107923;1257;60271;-94
2023/03/13 03:33:28;;;;;;;32.90;19.80;;;;;;;0.94;74.70;101201.67;109449;1257;72314;-94
2023/03/13 03:36:26;;;;;;;30.10;16.20;;;;;;;0.90;74.68;101207.91;109259;1256;63779;-94
2023/03/13 03:38:55;;;;;;;26.80;16.00;;;;;;;0.86;74.66;101213.12;107188;1256;72624;-95
2023/03/13 03:41:25;;;;;;;30.50;15.50;;;;;;;0.85;74.78;101215.20;106483;1263;60953;-96
2023/03/13 03:43:59;;;;;;;24.00;14.70;;;;;;;0.86;74.93;101218.27;107024;1257;60475;-96
2023/03/13 03:46:33;;;;;;;25.00;15.00;;;;;;;0.88;75.03;101226.35;107732;1256;72127;-96
2023/03/13 03:49:02;;;;;;;27.10;16.80;;;;;;;0.90;75.10;101235.27;108904;1257;65101;-95
2023/03/13 03:51:39;;;;;;;26.40;17.40;;;;;;;0.93;74.95;101237.31;108902;1255;72545;-94
2023/03/13 03:54:07;;;;;;;28.70;16.80;;;;;;;0.96;74.81;101241.42;107960;1256;60874;-94
2023/03/13 03:56:35;;;;;;;30.80;16.70;;;;;;;0.98;74.52;101247.94;108625;1256;60195;-94
2023/03/13 03:59:09;;;;;;;26.60;15.30;;;;;;;0.98;74.32;101250.36;107214;1254;73910;-93
2023/03/13 04:01:44;;;;;;;16.70;10.50;;;;;;;0.94;74.09;101258.30;106914;1256;64864;-95
2023/03/13 04:04:11;;;;;;;20.50;9.80;;;;;;;0.87;73.91;101259.59;106726;1254;73309;-94
2023/03/13 04:06:42;;;;;;;14.20;8.40;;;;;;;0.78;74.01;101266.02;106699;1253;59708;-95
2023/03/13 04:09:09;;;;;;;13.00;8.50;;;;;;;0.71;74.11;101264.71;107474;1256;60074;-95
2023/03/13 04:11:40;;;;;;;19.50;9.70;;;;;;;0.65;74.25;101269.06;108802;1253;72640;-95
2023/03/13 04:14:17;;;;;;;16.00;8.00;;;;;;;0.65;74.24;101278.37;109330;1257;62961;-95
2023/03/13 04:16:45;;;;;;;15.30;8.20;;;;;;;0.66;74.45;101283.34;107442;1253;72359;-93
2023/03/13 04:19:15;;;;;;;16.50;7.80;;;;;;;0.70;74.73;101287.44;106716;1259;61930;-96
2023/03/13 04:21:44;;;;;;;11.70;7.00;;;;;;;0.75;74.70;101298.58;106539;1252;61173;-96
2023/03/13 04:24:17;;;;;;;14.00;7.60;;;;;;;0.80;74.77;101306.98;106829;1254;74514;-95
2023/03/13 04:26:46;;;;;;;16.00;8.30;;;;;;;0.84;74.69;101317.27;106813;1254;62704;-92
2023/03/13 04:29:15;;;;;;;20.00;9.40;;;;;;;0.90;74.80;101321.86;106460;1254;71553;-95
2023/03/13 04:31:55;;;;;;;21.30;9.90;;;;;;;0.98;74.56;101325.05;106935;1253;59794;-95
2023/03/13 04:36:03;;;;;;;23.60;11.60;;;;;;;1.10;74.20;101329.59;104846;1283;616370;-96
2023/03/13 04:38:55;;;;;;;18.10;9.70;;;;;;;1.11;73.86;101339.24;106298;1267;60711;-95
2023/03/13 04:41:39;;;;;;;16.40;9.70;;;;;;;1.09;73.93;101341.31;106162;1269;60490;-95
2023/03/13 04:44:11;;;;;;;22.50;10.70;;;;;;;1.11;73.72;101346.48;106797;1256;73983;-96
2023/03/13 04:47:05;;;;;;;23.00;12.90;;;;;;;1.13;73.63;101355.92;107100;1256;62874;-96
2023/03/13 04:49:39;;;;;;;24.90;11.40;;;;;;;1.16;73.71;101359.86;105889;1254;2659516;-96
2023/03/13 04:52:29;;;;;;;22.60;13.00;;;;;;;1.23;73.53;101358.77;107707;1254;59231;-96
2023/03/13 04:55:22;;;;;;;29.20;13.60;;;;;;;1.41;73.88;101365.98;106902;1257;60900;-96
2023/03/13 04:58:13;;;;;;;26.20;12.80;;;;;;;1.82;73.89;101369.15;106847;1255;73400;-96
2023/03/13 05:01:01;;;;;;;26.80;12.60;;;;;;;2.51;74.24;101371.17;107264;1254;62957;-94
2023/03/13 05:03:51;;;;;;;21.30;11.20;;;;;;;3.41;72.87;101376.46;106827;1255;72854;-95
2023/03/13 05:06:39;;;;;;;27.10;12.20;;;;;;;4.38;70.81;101382.27;106876;1251;61043;-95
2023/03/13 05:09:33;;;;;;;19.00;12.60;;;;;;;5.40;67.96;101392.33;106807;1253;60682;-96
2023/03/13 05:12:09;;;;;;;28.50;13.40;;;;;;;6.22;65.56;101392.70;107169;1254;72977;-93
2023/03/13 05:16:17;;;;;;;27.90;14.00;;;;;;;6.98;61.74;101400.60;105643;1292;613363;-92
2023/03/13 05:19:21;;;;;;;21.30;12.20;;;;;;;7.41;59.12;101405.96;107681;1262;60467;-92
2023/03/13 05:22:08;;;;;;;20.40;12.00;;;;;;;7.76;57.39;101416.77;106832;1262;59238;-94
2023/03/13 05:24:55;;;;;;;21.20;10.40;;;;;;;8.13;56.15;101418.91;106956;1258;72327;-96
2023/03/13 05:27:45;;;;;;;13.10;8.80;;;;;;;8.38;54.32;101415.73;106738;1254;63898;-96
2023/03/13 05:31:45;;;;;;;12.60;7.50;;;;;;;8.42;52.89;101422.91;107295;1260;74030;-96
2023/03/13 05:34:48;;;;;;;8.40;5.50;;;;;;;8.70;52.13;101433.31;108624;1260;61859;-95
2023/03/13 05:37:50;;;;;;;4.70;3.10;;;;;;;8.99;50.67;101434.46;108229;1260;61406;-94
2023/03/13 05:45:19;;;;;;;3.50;1.90;;;;;;;9.37;49.26;101450.88;108577;1258;67262;-96
2023/03/13 05:48:13;;;;;;;3.00;1.40;;;;;;;9.63;48.31;101453.79;108324;1253;72498;-93
2023/03/13 05:51:01;;;;;;;3.40;1.30;;;;;;;10.00;46.56;101454.28;108469;1253;60785;-95
2023/03/13 05:54:00;;;;;;;4.90;1.50;;;;;;;10.40;44.71;101451.81;108852;1253;60436;-95
2023/03/13 05:57:22;;;;;;;2.50;1.60;;;;;;;10.75;43.46;101450.37;107942;1253;72151;-95
2023/03/13 06:00:25;;;;;;;6.90;1.40;;;;;;;11.14;42.55;101450.80;108303;1253;64186;-93
2023/03/13 06:03:17;;;;;;;2.30;1.40;;;;;;;11.48;41.47;101447.52;107614;1253;72934;-94
2023/03/13 06:05:48;;;;;;;1.90;1.50;;;;;;;11.89;40.23;101451.74;108672;1253;60249;-94
2023/03/13 06:08:46;;;;;;;2.60;1.40;;;;;;;12.35;38.86;101460.55;108304;1255;62375;-94
2023/03/13 06:11:16;;;;;;;2.60;0.90;;;;;;;12.66;38.01;101466.40;109180;1255;73018;-95
2023/03/13 06:13:58;;;;;;;2.40;1.10;;;;;;;12.90;36.46;101468.95;109277;1255;64355;-91
2023/03/13 06:18:09;;;;;;;1.70;1.10;;;;;;;13.27;35.61;101475.27;106707;1283;612623;-94
2023/03/13 06:20:41;;;;;;;1.20;0.70;;;;;;;13.76;35.47;101477.16;108570;1268;60583;-93
2023/03/13 06:23:12;;;;;;;2.00;0.70;;;;;;;14.04;33.91;101483.05;108107;1269;59190;-93
2023/03/13 06:25:47;;;;;;;3.80;0.90;;;;;;;14.22;33.25;101483.70;107897;1262;72239;31
2023/03/13 06:28:44;;;;;;;1.20;0.80;;;;;;;14.52;32.34;101487.33;108811;1260;63848;-93
2023/03/13 06:31:11;;;;;;;1.80;0.80;;;;;;;14.71;32.42;101484.67;108373;1259;745614;-93
2023/03/13 06:33:39;;;;;;;1.50;0.90;;;;;;;14.96;32.47;101486.64;108782;1259;60144;-94
2023/03/13 06:36:25;;;;;;;1.40;0.70;;;;;;;15.32;31.75;101496.29;108554;1259;60186;-95
2023/03/13 06:39:46;;;;;;;;;;;;;;;15.71;30.50;101504.67;109098;1258;71050;-96
2023/03/13 06:42:19;;;;;;;1.80;0.50;;;;;;;15.87;30.52;101504.62;108337;1259;63788;-93
2023/03/13 06:44:56;;;;;;;0.60;0.60;;;;;;;16.11;29.81;101502.98;107997;1258;72817;-96
2023/03/13 06:47:26;;;;;;;1.20;0.40;;;;;;;16.31;29.21;101506.00;107438;1259;61267;-93
2023/03/13 06:49:54;;;;;;;1.20;0.80;;;;;;;16.54;28.77;101513.20;107376;1258;59704;-95
2023/03/13 06:52:29;;;;;;;1.10;0.80;;;;;;;16.69;28.21;101516.77;107534;1259;73015;-93
2023/03/13 06:55:10;;;;;;;1.10;0.50;;;;;;;16.86;28.01;101521.41;108051;1259;64966;-95
2023/03/13 06:57:40;;;;;;;1.40;0.60;;;;;;;17.10;27.70;101523.37;108828;1259;72717;-92
2023/03/13 07:00:10;;;;;;;1.00;0.40;;;;;;;17.15;26.87;101527.95;109237;1256;60593;-94
2023/03/13 07:03:05;;;;;;;1.20;0.20;;;;;;;17.02;26.68;101538.42;109496;1252;59136;31
2023/03/13 07:05:57;;;;;;;0.50;0.20;;;;;;;16.83;26.08;101537.67;108145;1262;73950;-94
2023/03/13 07:08:33;;;;;;;0.90;0.60;;;;;;;16.76;26.26;101541.88;108544;1262;64980;-92
2023/03/13 07:11:28;;;;;;;0.60;0.40;;;;;;;17.01;26.55;101548.05;108029;1262;71442;-93
2023/03/13 07:14:00;;;;;;;2.30;0.50;;;;;;;17.33;26.06;101543.23;107512;1266;60326;-92
2023/03/13 07:16:44;;;;;;;0.80;0.20;;;;;;;17.63;25.78;101544.86;107851;1262;60277;-94
2023/03/13 07:19:19;;;;;;;3.00;0.50;;;;;;;17.71;24.69;101537.54;107944;1264;72824;-94
2023/03/13 07:22:02;;;;;;;1.80;1.00;;;;;;;17.69;25.19;101541.27;108190;1263;62364;-92
2023/03/13 07:24:32;;;;;;;1.20;0.30;;;;;;;17.77;24.96;101543.27;108230;1264;73794;-94
2023/03/13 07:27:52;;;;;;;1.20;0.30;;;;;;;17.79;24.56;101547.07;108711;1263;58992;-95
2023/03/13 07:31:32;;;;;;;0.70;0.20;;;;;;;17.60;24.03;101549.16;108660;1263;58820;-95
2023/03/13 07:34:43;;;;;;;2.50;0.60;;;;;;;17.41;24.35;101546.89;108394;1264;72226;-96
2023/03/13 07:37:44;;;;;;;1.00;0.50;;;;;;;17.35;24.58;101547.46;108397;1259;62970;-93
2023/03/13 07:40:36;;;;;;;0.80;0.40;;;;;;;17.46;24.01;101558.15;108590;1259;73279;-94
2023/03/13 07:43:19;;;;;;;;;;;;;;;17.52;23.66;101554.73;108720;1259;60267;-95
2023/03/13 07:46:24;;;;;;;0.90;0.30;;;;;;;17.58;23.74;101553.56;108418;1261;60294;-94
2023/03/13 07:48:54;;;;;;;1.40;0.40;;;;;;;17.64;23.57;101553.86;108602;1259;73133;-91
2023/03/13 07:51:26;;;;;;;1.20;0.40;;;;;;;17.81;23.58;101555.56;108629;1263;64854;-93
2023/03/13 07:54:14;;;;;;;0.60;0.40;;;;;;;17.98;23.67;101551.48;108386;1259;73688;-95
2023/03/13 07:57:07;;;;;;;0.90;0.40;;;;;;;18.13;23.71;101557.94;108298;1259;60542;-96
2023/03/13 08:08:11;;;;;;;0.50;0.30;;;;;;;18.52;22.42;101548.48;106989;1270;62377;-95
2023/03/13 08:11:25;;;;;;;0.60;0.40;;;;;;;18.36;22.35;101554.36;106474;1281;71181;-95
2023/03/13 08:14:17;;;;;;;0.80;0.20;;;;;;;18.56;22.83;101556.71;105961;1260;59208;-94
2023/03/13 08:21:29;;;;;;;0.40;0.30;;;;;;;19.03;22.06;101557.92;108168;1260;72104;31
2023/03/13 08:24:11;;;;;;;1.60;0.60;;;;;;;19.13;22.58;101563.52;108688;1269;63809;-93
2023/03/13 08:27:13;;;;;;;1.20;0.50;;;;;;;19.40;22.06;101568.80;107855;1270;74587;-95
2023/03/13 08:30:17;;;;;;;0.70;0.30;;;;;;;19.55;21.67;101568.27;107754;1270;61194;-95
2023/03/13 08:33:11;;;;;;;0.70;0.30;;;;;;;19.60;21.40;101571.77;107857;1271;60024;-96
2023/03/13 08:36:41;;;;;;;1.30;0.60;;;;;;;19.61;21.95;101577.52;108123;1267;71421;-96
2023/03/13 08:39:47;;;;;;;0.90;0.40;;;;;;;19.79;21.82;101574.95;107699;1267;64267;-96
2023/03/13 08:42:47;;;;;;;0.30;0.20;;;;;;;19.83;20.49;101575.04;107786;1267;72092;-94
2023/03/13 08:49:57;;;;;;;0.60;0.20;;;;;;;19.80;21.46;101591.89;108415;1267;61655;-94
2023/03/13 08:52:44;;;;;;;0.60;0.20;;;;;;;19.87;20.93;101594.41;107277;1267;73865;-94
2023/03/13 08:55:12;;;;;;;1.60;0.40;;;;;;;19.89;21.05;101593.71;106880;1267;64683;-95
2023/03/13 08:57:55;;;;;;;0.30;0.20;;;;;;;19.93;20.98;101601.04;107639;1268;72725;-95
2023/03/13 09:00:37;;;;;;;0.80;0.20;;;;;;;19.88;20.63;101602.25;107983;1267;61853;-96
2023/03/13 09:03:35;;;;;;;1.10;0.40;;;;;;;19.90;21.06;101598.93;107254;1267;59390;-96
2023/03/13 09:06:09;;;;;;;1.50;0.70;;;;;;;19.97;20.80;101592.96;107497;1266;73188;-96
2023/03/13 09:08:45;;;;;;;0.70;0.60;;;;;;;20.00;20.59;101595.59;107179;1267;64989;-96
2023/03/13 09:11:39;;;;;;;0.90;0.40;;;;;;;20.00;20.81;101596.81;108466;1267;73745;-96
2023/03/13 09:14:42;;;;;;;2.60;0.30;;;;;;;20.26;20.67;101594.45;108356;1261;58824;-95
2023/03/13 09:17:33;;;;;;;1.40;0.20;;;;;;;20.53;20.42;101592.31;108363;1266;59407;-93
2023/03/13 09:21:03;;;;;;;1.50;0.20;;;;;;;20.63;20.50;101592.36;108232;1259;72965;31
2023/03/13 14:53:32;;;;;;;6.90;2.80;;;;;;;8.70;35.20;101534.97;108872;1260;615039;-96
2023/03/13 14:57:26;;;;;;;8.80;4.80;;;;;;;8.68;35.32;101529.64;103714;1241;10138095;-96
2023/03/13 15:00:50;;;;;;;9.20;5.90;;;;;;;8.61;35.15;101532.69;111392;1245;70958;-96
2023/03/13 15:03:51;;;;;;;20.10;11.30;;;;;;;8.49;34.76;101534.16;111131;1240;64985;-96
2023/03/13 15:06:47;;;;;;;5.90;4.10;;;;;;;8.35;34.45;101533.77;110653;1242;71586;-96
2023/03/13 15:09:46;;;;;;;4.00;2.40;;;;;;;8.27;34.98;101536.52;111499;1243;59173;-96
2023/03/13 15:12:35;;;;;;;3.50;1.80;;;;;;;8.18;35.60;101535.77;111897;1238;60503;-96
2023/03/13 15:15:53;;;;;;;3.60;1.40;;;;;;;8.11;36.00;101529.06;111856;1238;72543;-96
2023/03/13 15:19:27;;;;;;;5.40;2.50;;;;;;;8.05;35.75;101533.77;111846;1238;63014;-96
2023/03/13 15:23:43;;;;;;;9.10;3.60;;;;;;;7.98;36.40;101533.33;112246;1235;72735;-96
2023/03/13 15:27:05;;;;;;;14.20;6.00;;;;;;;7.85;36.28;101535.67;112218;1240;58353;-96
2023/03/13 15:30:00;;;;;;;15.50;8.20;;;;;;;7.76;36.70;101540.33;112020;1239;62354;-96
2023/03/13 15:34:01;;;;;;;14.90;8.00;;;;;;;7.64;37.27;101545.42;112217;1235;72121;-95
2023/03/13 15:37:45;;;;;;;19.90;8.60;;;;;;;7.51;37.54;101550.23;112421;1235;61642;-94
2023/03/13 15:41:34;;;;;;;27.40;13.50;;;;;;;7.36;38.04;101552.08;112041;1235;72602;-96
2023/03/13 15:45:27;;;;;;;31.80;17.80;;;;;;;7.26;38.32;101556.89;112105;1232;58089;-96
2023/03/13 15:48:38;;;;;;;28.70;15.40;;;;;;;7.15;38.44;101553.79;112118;1236;59167;-96
2023/03/13 15:53:01;;;;;;;34.10;16.80;;;;;;;7.05;39.05;101570.77;112372;1232;71919;-96
2023/03/13 15:56:44;;;;;;;69.50;40.20;;;;;;;6.92;39.08;101573.23;112037;1232;62717;-96
2023/03/13 16:00:23;;;;;;;112.10;63.20;;;;;;;6.86;39.27;101582.29;112171;1232;71588;-95
2023/03/13 16:03:40;;;;;;;117.30;70.50;;;;;;;6.78;39.56;101584.94;112400;1232;60898;-95
2023/03/13 16:07:39;;;;;;;152.40;106.00;;;;;;;6.73;39.97;101587.35;112447;1232;58901;-95
2023/03/13 16:10:38;;;;;;;117.50;68.50;;;;;;;6.64;40.98;101589.15;112281;1232;73944;-96
2023/03/13 16:13:42;;;;;;;171.30;100.50;;;;;;;6.55;42.52;101594.11;112466;1232;64536;-95
2023/03/13 16:27:04;;;;;;;103.90;64.20;;;;;;;6.14;44.85;101596.56;111233;1234;977874;-95
2023/03/13 16:44:23;;;;;;;121.00;66.10;;;;;;;5.50;47.68;101600.70;112369;1234;71628;-94
2023/03/13 16:47:42;;;;;;;124.00;63.90;;;;;;;5.39;47.86;101599.05;112452;1234;62151;-96
2023/03/13 19:16:55;;;;;;;106.10;60.90;;;;;;;3.02;60.98;101685.29;112462;1233;59443;-96
2023/03/13 20:10:56;;;;;;;32.40;18.50;;;;;;;2.98;59.76;101691.91;112353;1235;63174;-96
2023/03/13 20:44:29;;;;;;;25.60;13.20;;;;;;;2.83;56.59;101678.25;111740;1234;63644;-96
2023/03/13 20:50:59;;;;;;;20.40;11.30;;;;;;;2.81;56.35;101677.24;112362;1234;60079;-95
2023/03/13 20:58:45;;;;;;;24.60;12.00;;;;;;;2.77;56.15;101676.42;111906;1236;72632;-95
2023/03/13 21:02:08;;;;;;;22.80;11.50;;;;;;;2.71;56.02;101674.23;112076;1237;63613;-95
2023/03/13 21:05:30;;;;;;;21.40;10.60;;;;;;;2.71;56.12;101675.10;111968;1234;71693;31
2023/03/13 21:08:31;;;;;;;18.70;10.40;;;;;;;2.73;55.95;101678.02;112000;1237;57053;-95
2023/03/13 21:32:06;;;;;;;;;;;;;;;;;;;;;
2023/03/13 21:36:44;;;;;;;20.80;9.80;;;;;;;2.60;56.44;101669.52;111862;1238;61651;-95
2023/03/13 21:39:31;;;;;;;20.20;10.30;;;;;;;2.56;56.53;101668.70;111891;1240;71854;-94
2023/03/13 21:42:22;;;;;;;19.00;9.90;;;;;;;2.51;56.65;101670.13;111999;1237;58179;-93
